Time;durP1;ratioP1;P1;durP2;ratioP2;P2;SDS_P1;SDS_P2;PMS_P1;PMS_P2;Temp;Humidity;BMP_temperature;BMP_pressure;BME280_temperature;BME280_humidity;BME280_pressure;Samples;Min_cycle;Max_cycle;Signal;HPM_P1;HPM_P2
2021/03/16 00:00:36;;;;;;;28.80;3.58;;;9.70;96.60;;;;;;5105720;27;20465;-76
2021/03/16 00:03:21;;;;;;;34.53;4.28;;;9.70;96.60;;;;;;5108206;28;20511;-76
2021/03/16 00:05:57;;;;;;;30.43;4.03;;;9.70;96.80;;;;;;5089018;28;20420;-77
2021/03/16 00:08:23;;;;;;;26.15;4.00;;;9.70;96.50;;;;;;5105274;27;20475;-74
2021/03/16 00:10:51;;;;;;;28.45;4.50;;;9.70;96.40;;;;;;5091754;27;20425;-77
2021/03/16 00:13:17;;;;;;;30.95;4.32;;;9.70;96.60;;;;;;5097493;27;20424;-75
2021/03/16 00:15:44;;;;;;;25.57;4.07;;;9.70;96.60;;;;;;5104657;27;20416;-74
2021/03/16 00:18:14;;;;;;;30.00;4.40;;;9.70;96.30;;;;;;5107550;27;20426;-73
2021/03/16 00:20:41;;;;;;;26.70;4.47;;;9.70;96.30;;;;;;5087774;28;20427;-75
2021/03/16 00:23:08;;;;;;;27.40;4.15;;;9.70;96.50;;;;;;5105003;27;20892;-75
2021/03/16 00:25:34;;;;;;;27.20;4.25;;;9.70;96.50;;;;;;5099032;28;20420;-75
2021/03/16 00:28:01;;;;;;;29.60;4.20;;;9.70;96.80;;;;;;5102749;27;20439;-77
2021/03/16 00:30:28;;;;;;;27.20;4.32;;;9.70;96.60;;;;;;5085142;28;20424;-74
2021/03/16 00:32:54;;;;;;;35.33;4.40;;;9.80;96.60;;;;;;5089843;28;20784;-76
2021/03/16 00:35:21;;;;;;;29.17;4.07;;;9.70;96.50;;;;;;5104612;27;20427;-74
2021/03/16 00:37:47;;;;;;;25.02;4.03;;;9.80;96.70;;;;;;5087266;28;20458;-75
2021/03/16 00:40:14;;;;;;;27.33;3.97;;;9.80;96.70;;;;;;5105205;27;20435;-75
2021/03/16 00:42:41;;;;;;;31.90;3.88;;;9.70;96.70;;;;;;5106857;27;20440;-76
2021/03/16 00:45:10;;;;;;;27.33;4.17;;;9.80;96.80;;;;;;5105118;27;20780;-76
2021/03/16 00:47:36;;;;;;;27.33;3.63;;;9.70;97.20;;;;;;5086629;28;20493;-74
2021/03/16 00:50:04;;;;;;;30.03;4.43;;;9.80;96.80;;;;;;5102551;27;20430;-76
2021/03/16 00:52:31;;;;;;;26.33;3.65;;;9.70;96.80;;;;;;5107567;27;20420;-77
2021/03/16 00:54:58;;;;;;;24.08;3.65;;;9.80;96.60;;;;;;5082401;28;20515;-75
2021/03/16 00:57:25;;;;;;;25.38;3.83;;;9.70;96.40;;;;;;5104902;27;20446;-77
2021/03/16 00:59:51;;;;;;;30.50;4.05;;;9.70;96.40;;;;;;5101185;27;20478;-76
2021/03/16 01:02:19;;;;;;;30.48;3.78;;;9.70;96.50;;;;;;5084293;27;20414;-75
2021/03/16 01:04:45;;;;;;;31.73;3.80;;;9.70;96.50;;;;;;5086210;27;20428;-75
2021/03/16 01:07:12;;;;;;;29.67;3.80;;;9.70;96.60;;;;;;5084772;28;20415;-75
2021/03/16 01:09:38;;;;;;;30.55;4.22;;;9.60;96.90;;;;;;5102834;27;21143;-75
2021/03/16 01:12:06;;;;;;;30.35;4.22;;;9.60;97.30;;;;;;5104100;28;20521;-75
2021/03/16 01:14:32;;;;;;;29.60;4.45;;;9.60;97.00;;;;;;5106487;27;20839;-75
2021/03/16 01:16:59;;;;;;;29.77;4.20;;;9.70;96.90;;;;;;5104981;27;20427;-76
2021/03/16 01:19:26;;;;;;;30.27;4.20;;;9.70;96.80;;;;;;5101552;28;20436;-74
2021/03/16 01:21:53;;;;;;;33.88;4.18;;;9.70;96.60;;;;;;5085894;28;20430;-74
2021/03/16 01:24:19;;;;;;;35.88;4.45;;;9.70;96.60;;;;;;5083154;28;21003;-76
2021/03/16 01:26:46;;;;;;;30.08;3.72;;;9.70;96.70;;;;;;5100917;27;20440;-75
2021/03/16 01:29:12;;;;;;;36.27;4.73;;;9.70;96.80;;;;;;5104839;28;20455;-76
2021/03/16 01:31:38;;;;;;;28.52;4.32;;;9.70;96.90;;;;;;5101349;27;20438;-76
2021/03/16 01:34:04;;;;;;;33.60;4.63;;;9.70;96.90;;;;;;5104194;28;20497;-75
2021/03/16 01:36:32;;;;;;;32.30;4.40;;;9.70;97.00;;;;;;5102315;28;20890;-74
2021/03/16 01:38:59;;;;;;;37.27;4.37;;;9.60;97.10;;;;;;5085997;28;20920;-76
2021/03/16 01:41:26;;;;;;;29.17;4.32;;;9.60;97.10;;;;;;5106470;27;20485;-74
2021/03/16 01:43:52;;;;;;;36.67;4.30;;;9.60;97.30;;;;;;5103855;28;21198;-75
2021/03/16 01:46:19;;;;;;;31.50;4.10;;;9.60;97.40;;;;;;5104554;27;20415;-77
2021/03/16 01:48:46;;;;;;;28.45;3.80;;;9.60;97.40;;;;;;5087694;28;20420;-76
2021/03/16 01:51:12;;;;;;;30.83;4.13;;;9.50;97.40;;;;;;5105074;28;20433;-76
2021/03/16 01:53:41;;;;;;;31.73;4.63;;;9.60;97.40;;;;;;5088520;28;20512;-77
2021/03/16 01:56:11;;;;;;;35.45;4.00;;;9.50;97.40;;;;;;5088541;28;20502;-76
2021/03/16 01:58:56;;;;;;;30.65;4.15;;;9.50;97.40;;;;;;5104188;28;20419;-76
2021/03/16 02:01:42;;;;;;;27.52;3.83;;;9.50;97.30;;;;;;5102705;27;20449;-76
2021/03/16 02:04:27;;;;;;;25.48;3.83;;;9.50;97.30;;;;;;5101567;27;20443;-76
2021/03/16 02:07:19;;;;;;;30.35;3.80;;;9.50;97.40;;;;;;5105319;28;20419;-75
2021/03/16 02:10:11;;;;;;;28.08;4.47;;;9.50;97.50;;;;;;5099648;28;20423;-75
2021/03/16 02:13:02;;;;;;;25.17;3.80;;;9.50;97.70;;;;;;5103495;28;20981;-75
2021/03/16 02:15:53;;;;;;;27.95;4.03;;;9.50;98.20;;;;;;5103197;28;20431;-75
2021/03/16 02:18:41;;;;;;;32.20;4.30;;;9.50;98.00;;;;;;5101063;28;20428;-76
2021/03/16 02:21:29;;;;;;;38.60;4.20;;;9.50;98.20;;;;;;5103315;28;20463;-76
2021/03/16 02:24:47;;;;;;;35.73;4.50;;;9.60;98.40;;;;;;5100850;28;20449;-78
2021/03/16 02:27:50;;;;;;;32.55;3.65;;;9.60;98.40;;;;;;5104556;28;20466;-77
2021/03/16 02:30:40;;;;;;;31.85;4.70;;;9.60;98.50;;;;;;5098823;28;20427;-75
2021/03/16 02:33:28;;;;;;;28.55;3.88;;;9.60;98.60;;;;;;5102199;28;20446;-75
2021/03/16 02:36:13;;;;;;;31.27;4.38;;;9.60;98.70;;;;;;5104354;28;20427;-77
2021/03/16 02:39:00;;;;;;;32.88;3.88;;;9.60;98.70;;;;;;5103223;27;20538;-74
2021/03/16 02:41:49;;;;;;;29.10;3.95;;;9.60;98.60;;;;;;5103531;28;20503;-75
2021/03/16 02:44:34;;;;;;;36.58;4.45;;;9.60;98.60;;;;;;5102234;28;20637;-77
2021/03/16 02:47:21;;;;;;;33.65;4.18;;;9.70;98.60;;;;;;5103175;28;20441;-76
2021/03/16 02:50:08;;;;;;;31.38;3.97;;;9.70;98.50;;;;;;5100959;28;20504;-74
2021/03/16 02:52:54;;;;;;;35.65;4.25;;;9.70;98.50;;;;;;5105154;28;20425;-74
2021/03/16 02:55:40;;;;;;;27.77;3.85;;;9.70;98.30;;;;;;5100302;28;20474;-76
2021/03/16 02:58:27;;;;;;;33.22;4.00;;;9.60;98.30;;;;;;5102275;28;20464;-77
2021/03/16 03:01:14;;;;;;;35.60;4.27;;;9.60;98.40;;;;;;5102128;28;20427;-75
2021/03/16 03:04:02;;;;;;;33.53;4.50;;;9.60;98.40;;;;;;5099431;28;20454;-76
2021/03/16 03:06:49;;;;;;;28.73;3.83;;;9.50;98.50;;;;;;5102392;28;20431;-76
2021/03/16 03:09:35;;;;;;;32.80;4.50;;;9.50;98.40;;;;;;5103022;28;20431;-74
2021/03/16 03:12:20;;;;;;;29.00;3.92;;;9.50;98.50;;;;;;5105373;28;20424;-77
2021/03/16 03:15:06;;;;;;;34.55;4.00;;;9.50;98.50;;;;;;5100652;28;20983;-74
2021/03/16 03:17:51;;;;;;;39.03;4.17;;;9.50;98.60;;;;;;5102175;28;20411;-76
2021/03/16 03:20:37;;;;;;;35.78;4.55;;;9.50;98.50;;;;;;5103267;28;20419;-75
2021/03/16 03:23:25;;;;;;;30.10;3.67;;;9.60;98.50;;;;;;5104016;28;20552;-75
2021/03/16 03:26:16;;;;;;;27.57;4.40;;;9.50;98.40;;;;;;5106165;27;20419;-75
2021/03/16 03:29:01;;;;;;;29.13;3.93;;;9.50;98.20;;;;;;5104737;27;20511;-75
2021/03/16 03:31:48;;;;;;;38.30;4.93;;;9.50;98.30;;;;;;5106212;27;20488;-76
2021/03/16 03:34:35;;;;;;;33.78;4.03;;;9.50;98.30;;;;;;5105010;27;20435;-75
2021/03/16 03:37:24;;;;;;;33.10;4.55;;;9.60;98.20;;;;;;5104279;27;20419;-76
2021/03/16 03:40:12;;;;;;;35.42;4.53;;;9.60;98.30;;;;;;5106771;28;20473;-74
2021/03/16 03:42:58;;;;;;;36.25;4.47;;;9.60;98.30;;;;;;5106998;27;20415;-76
2021/03/16 03:45:45;;;;;;;32.95;3.78;;;9.60;98.40;;;;;;5106912;27;20957;-75
2021/03/16 03:48:30;;;;;;;34.10;4.43;;;9.60;98.40;;;;;;5104207;27;20463;-76
2021/03/16 03:51:19;;;;;;;34.17;4.63;;;9.60;98.60;;;;;;5100709;28;20781;-77
2021/03/16 03:54:06;;;;;;;34.70;4.03;;;9.60;98.60;;;;;;5105598;27;20943;-77
2021/03/16 03:56:52;;;;;;;35.63;4.00;;;9.60;98.80;;;;;;5107362;27;21019;-74
2021/03/16 03:59:41;;;;;;;36.70;4.47;;;9.50;98.90;;;;;;5105060;27;20421;-77
2021/03/16 04:02:27;;;;;;;30.60;4.38;;;9.60;99.10;;;;;;5105212;27;20464;-76
2021/03/16 04:05:13;;;;;;;37.85;4.22;;;9.60;99.10;;;;;;5105257;27;20857;-75
2021/03/16 04:07:59;;;;;;;31.85;4.05;;;9.50;99.10;;;;;;5103922;27;20413;-76
2021/03/16 04:10:45;;;;;;;33.97;3.97;;;9.60;99.20;;;;;;5103368;27;20428;-75
2021/03/16 04:13:32;;;;;;;28.83;3.67;;;9.50;99.40;;;;;;5105380;27;20423;-76
2021/03/16 04:16:17;;;;;;;31.33;3.95;;;9.60;99.50;;;;;;5107204;27;20420;-74
2021/03/16 04:19:04;;;;;;;28.75;4.00;;;9.60;99.10;;;;;;5104645;28;20471;-76
2021/03/16 04:21:50;;;;;;;31.88;3.80;;;9.60;99.10;;;;;;5104082;27;20427;-75
2021/03/16 04:24:35;;;;;;;31.70;3.80;;;9.60;99.20;;;;;;5104083;27;20477;-74
2021/03/16 04:27:21;;;;;;;33.27;3.60;;;9.60;99.00;;;;;;5102007;27;20422;-74
2021/03/16 04:30:08;;;;;;;32.63;4.05;;;9.50;99.00;;;;;;5105773;27;20961;-76
2021/03/16 04:32:53;;;;;;;33.53;3.90;;;9.50;99.10;;;;;;5106978;27;20418;-76
2021/03/16 04:35:38;;;;;;;27.35;3.78;;;9.50;99.10;;;;;;5106474;27;20506;-77
2021/03/16 04:38:23;;;;;;;32.38;3.90;;;9.50;99.20;;;;;;5101145;27;20990;-75
2021/03/16 04:41:09;;;;;;;33.30;4.18;;;9.50;99.20;;;;;;5104409;27;20992;-74
2021/03/16 04:43:55;;;;;;;32.72;4.40;;;9.40;99.20;;;;;;5103759;27;20547;-75
2021/03/16 04:46:39;;;;;;;32.63;4.18;;;9.50;99.30;;;;;;5104413;28;20438;-78
2021/03/16 04:49:24;;;;;;;33.45;4.43;;;9.50;99.40;;;;;;5103266;28;20462;-76
2021/03/16 04:52:09;;;;;;;35.45;3.75;;;9.50;99.50;;;;;;5105678;27;20422;-76
2021/03/16 04:54:55;;;;;;;25.42;3.58;;;9.50;99.60;;;;;;5104167;27;20442;-76
2021/03/16 04:57:39;;;;;;;33.95;4.43;;;9.50;99.50;;;;;;5104766;27;21008;-75
2021/03/16 05:00:25;;;;;;;30.33;3.58;;;9.50;99.60;;;;;;5104656;28;20767;-78
2021/03/16 05:03:10;;;;;;;33.43;4.20;;;9.50;99.70;;;;;;5105692;27;20485;-75
2021/03/16 05:05:55;;;;;;;26.23;4.25;;;9.50;99.40;;;;;;5108609;27;20475;-74
2021/03/16 05:08:40;;;;;;;31.42;4.47;;;9.50;99.40;;;;;;5104683;27;20459;-75
2021/03/16 05:11:25;;;;;;;28.67;3.85;;;9.50;99.30;;;;;;5107018;28;20419;-75
2021/03/16 05:14:10;;;;;;;31.80;4.18;;;9.50;99.40;;;;;;5102054;28;20478;-73
2021/03/16 05:16:56;;;;;;;33.13;3.88;;;9.40;99.40;;;;;;5107265;28;20831;-75
2021/03/16 05:19:41;;;;;;;31.65;3.75;;;9.40;99.30;;;;;;5104438;27;20565;-74
2021/03/16 05:22:26;;;;;;;32.22;4.20;;;9.40;99.30;;;;;;5102825;27;20424;-75
2021/03/16 05:25:12;;;;;;;28.77;4.63;;;9.40;99.40;;;;;;5104012;27;21572;-75
2021/03/16 05:27:57;;;;;;;29.25;3.97;;;9.40;99.50;;;;;;5103245;27;20554;-74
2021/03/16 05:30:42;;;;;;;28.92;3.83;;;9.40;99.40;;;;;;5103569;28;20792;-75
2021/03/16 05:33:28;;;;;;;30.52;3.67;;;9.40;99.40;;;;;;5103344;27;21007;-76
2021/03/16 05:36:12;;;;;;;26.17;3.45;;;9.40;99.50;;;;;;5101012;27;20420;-76
2021/03/16 05:38:57;;;;;;;35.63;3.95;;;9.40;99.40;;;;;;5103088;27;20458;-76
2021/03/16 05:41:43;;;;;;;32.33;4.28;;;9.40;99.40;;;;;;5105943;27;20435;-76
2021/03/16 05:44:28;;;;;;;30.23;4.20;;;9.40;99.40;;;;;;5104399;27;20503;-73
2021/03/16 05:47:14;;;;;;;27.55;3.95;;;9.40;99.70;;;;;;5104939;28;20427;-76
2021/03/16 05:50:03;;;;;;;32.90;4.30;;;9.40;99.40;;;;;;5104219;28;20438;-76
2021/03/16 05:52:48;;;;;;;29.63;4.03;;;9.40;99.50;;;;;;5101629;28;20484;-78
2021/03/16 05:55:33;;;;;;;31.43;3.80;;;9.50;99.40;;;;;;5103867;28;20431;-75
2021/03/16 05:58:18;;;;;;;31.80;4.07;;;9.50;99.40;;;;;;5103225;28;20478;-74
2021/03/16 06:01:03;;;;;;;27.90;3.78;;;9.50;99.50;;;;;;5099531;28;20488;-76
2021/03/16 06:03:48;;;;;;;35.22;4.07;;;9.40;99.40;;;;;;5100826;27;20767;-75
2021/03/16 06:06:34;;;;;;;32.95;3.95;;;9.50;99.40;;;;;;5102336;28;20427;-74
2021/03/16 06:09:19;;;;;;;32.50;3.42;;;9.50;99.40;;;;;;5105786;28;21147;-76
2021/03/16 06:12:05;;;;;;;32.22;3.78;;;9.50;99.40;;;;;;5102944;28;20469;-75
2021/03/16 06:14:50;;;;;;;31.58;4.03;;;9.50;99.50;;;;;;5096862;27;20773;-75
2021/03/16 06:17:41;;;;;;;34.80;3.88;;;9.50;99.50;;;;;;5104946;28;20424;-74
2021/03/16 06:20:27;;;;;;;31.80;4.10;;;9.50;99.50;;;;;;5104748;28;20461;-73
2021/03/16 06:23:14;;;;;;;32.17;4.03;;;9.50;99.50;;;;;;5101870;28;20415;-76
2021/03/16 06:26:00;;;;;;;30.33;4.00;;;9.60;99.60;;;;;;5101739;28;20440;-74
2021/03/16 06:28:45;;;;;;;39.40;4.95;;;9.60;99.50;;;;;;5104637;28;20453;-75
2021/03/16 06:31:29;;;;;;;42.00;8.07;;;9.60;99.40;;;;;;5104130;28;20425;-75
2021/03/16 06:34:22;;;;;;;35.42;4.68;;;9.60;99.40;;;;;;5101585;28;20419;-75
2021/03/16 06:37:07;;;;;;;36.90;4.43;;;9.60;99.50;;;;;;5102828;28;20427;-75
2021/03/16 06:39:57;;;;;;;36.90;4.07;;;9.60;99.60;;;;;;5101720;28;20483;-75
2021/03/16 06:42:42;;;;;;;34.67;4.68;;;9.60;99.60;;;;;;5102899;28;20936;-74
2021/03/16 06:45:30;;;;;;;37.08;4.70;;;9.60;99.70;;;;;;5102376;28;20462;-74
2021/03/16 06:48:17;;;;;;;33.72;4.15;;;9.60;99.70;;;;;;5099391;28;20493;-75
2021/03/16 06:51:13;;;;;;;37.58;4.18;;;9.60;99.90;;;;;;5103761;28;20966;-75
2021/03/16 06:54:07;;;;;;;32.15;3.83;;;9.60;99.90;;;;;;5101650;28;20493;-75
2021/03/16 06:56:54;;;;;;;30.77;3.90;;;9.60;99.90;;;;;;5103367;28;20458;-75
2021/03/16 06:59:39;;;;;;;31.48;4.25;;;9.60;99.90;;;;;;5103756;28;20827;-76
2021/03/16 07:02:23;;;;;;;29.48;3.88;;;9.60;99.90;;;;;;5109559;27;20465;-76
2021/03/16 07:05:09;;;;;;;33.80;3.65;;;9.60;99.90;;;;;;5106714;28;20440;-78
2021/03/16 07:07:55;;;;;;;32.70;3.85;;;9.60;99.90;;;;;;5103789;27;20867;-76
2021/03/16 07:10:41;;;;;;;33.15;3.67;;;9.60;99.80;;;;;;5101608;28;20431;-76
2021/03/16 07:13:28;;;;;;;30.67;3.97;;;9.70;99.80;;;;;;5102103;27;20773;-77
2021/03/16 07:16:14;;;;;;;33.38;4.10;;;9.70;99.80;;;;;;5102643;27;20454;-77
2021/03/16 07:19:07;;;;;;;35.10;4.13;;;9.70;99.60;;;;;;5105610;27;20575;-77
2021/03/16 07:21:55;;;;;;;36.47;4.37;;;9.70;99.60;;;;;;5100254;27;20424;-76
2021/03/16 07:24:41;;;;;;;27.42;4.05;;;9.80;99.80;;;;;;5102864;27;22388;-77
2021/03/16 07:27:26;;;;;;;34.08;4.38;;;9.80;99.80;;;;;;5104131;27;20457;-75
2021/03/16 07:30:14;;;;;;;32.00;3.95;;;9.70;99.60;;;;;;5100085;27;21022;-76
2021/03/16 07:33:00;;;;;;;33.60;4.32;;;9.70;99.90;;;;;;5104028;27;20989;-78
2021/03/16 07:35:48;;;;;;;40.30;4.10;;;9.70;99.90;;;;;;5112811;22;20876;-75
2021/03/16 07:38:34;;;;;;;35.57;4.60;;;9.70;99.90;;;;;;5060218;28;20422;-76
2021/03/16 07:44:02;;;;;;;32.40;4.13;;;9.70;99.90;;;;;;4843391;22;20426;-75
2021/03/16 07:46:51;;;;;;;33.80;4.60;;;9.70;99.90;;;;;;5042683;28;20424;-76
2021/03/16 07:49:41;;;;;;;31.73;3.80;;;9.80;99.90;;;;;;5040734;28;20432;-76
2021/03/16 07:52:26;;;;;;;29.10;4.40;;;9.80;99.90;;;;;;5038570;28;20443;-74
2021/03/16 07:55:23;;;;;;;30.48;3.35;;;9.80;99.90;;;;;;5044033;28;20994;-76
2021/03/16 07:58:11;;;;;;;27.35;3.85;;;9.70;99.90;;;;;;5047758;28;20459;-76
2021/03/16 08:01:05;;;;;;;30.97;3.80;;;9.80;99.90;;;;;;5047384;28;20474;-77
2021/03/16 08:03:51;;;;;;;25.98;3.50;;;9.80;99.90;;;;;;5045726;28;21034;-77
2021/03/16 08:06:37;;;;;;;26.30;3.60;;;9.80;99.90;;;;;;5046433;28;20436;-76
2021/03/16 08:09:24;;;;;;;30.13;3.60;;;9.80;99.90;;;;;;5043053;28;20428;-77
2021/03/16 08:12:20;;;;;;;29.55;3.63;;;9.80;99.90;;;;;;5046640;28;20436;-77
2021/03/16 08:15:13;;;;;;;25.23;3.33;;;9.80;99.90;;;;;;5043527;28;20980;-73
2021/03/16 08:17:58;;;;;;;25.23;3.70;;;9.80;99.90;;;;;;5042405;28;20943;-74
2021/03/16 08:20:47;;;;;;;28.83;3.30;;;9.80;99.90;;;;;;5041380;28;20437;-74
2021/03/16 08:23:33;;;;;;;27.92;3.38;;;9.80;99.90;;;;;;5041944;28;21000;-75
2021/03/16 08:26:18;;;;;;;27.15;3.67;;;9.70;99.90;;;;;;5045860;28;20560;-75
2021/03/16 08:29:03;;;;;;;27.42;3.55;;;9.80;99.90;;;;;;5042562;28;20440;-76
2021/03/16 08:31:51;;;;;;;29.38;4.05;;;9.80;99.90;;;;;;5043197;28;20558;-74
2021/03/16 08:34:36;;;;;;;25.27;3.67;;;9.80;99.90;;;;;;5041318;28;20448;-75
2021/03/16 08:37:23;;;;;;;24.02;3.00;;;9.90;99.90;;;;;;5044408;28;20457;-75
2021/03/16 08:40:09;;;;;;;26.02;3.53;;;9.90;99.90;;;;;;5043816;28;20576;-76
2021/03/16 08:42:55;;;;;;;24.55;3.28;;;9.90;99.90;;;;;;5045065;28;20436;-76
2021/03/16 08:45:45;;;;;;;26.27;3.77;;;9.90;99.90;;;;;;5044579;28;20459;-76
2021/03/16 08:48:32;;;;;;;25.98;3.40;;;9.90;99.90;;;;;;5043860;28;20438;-76
2021/03/16 08:51:22;;;;;;;22.27;4.93;;;9.90;99.90;;;;;;5045681;28;20459;-76
2021/03/16 08:54:08;;;;;;;17.65;2.50;;;9.90;99.90;;;;;;5043966;28;20978;-77
2021/03/16 08:56:53;;;;;;;20.63;2.78;;;9.90;99.50;;;;;;5045558;28;20475;-77
2021/03/16 08:59:38;;;;;;;17.92;2.80;;;9.90;99.60;;;;;;5043116;28;20523;-76
2021/03/16 09:02:27;;;;;;;19.08;2.83;;;10.00;99.50;;;;;;5043150;28;20503;-77
2021/03/16 09:05:20;;;;;;;21.92;2.58;;;10.00;99.50;;;;;;5041646;28;20834;-76
2021/03/16 09:08:06;;;;;;;20.47;3.17;;;10.10;99.00;;;;;;5044133;28;20428;-76
2021/03/16 09:10:51;;;;;;;17.57;2.50;;;10.10;98.80;;;;;;5046993;28;20424;-76
2021/03/16 09:13:37;;;;;;;19.45;3.03;;;10.20;98.50;;;;;;5041323;28;20452;-78
2021/03/16 09:16:22;;;;;;;24.48;2.90;;;10.20;98.60;;;;;;5045643;28;20781;-75
2021/03/16 09:19:09;;;;;;;19.17;2.72;;;10.20;98.90;;;;;;5041909;28;20490;-76
2021/03/16 09:21:56;;;;;;;23.10;2.65;;;10.20;98.50;;;;;;5046531;28;20829;-76
2021/03/16 09:24:43;;;;;;;21.95;2.85;;;10.20;99.00;;;;;;5043760;28;20448;-75
2021/03/16 09:27:29;;;;;;;17.93;2.70;;;10.20;99.50;;;;;;5046247;28;20979;-76
2021/03/16 09:30:17;;;;;;;19.60;3.03;;;10.20;99.40;;;;;;5042449;28;21004;-75
2021/03/16 09:33:03;;;;;;;20.42;2.40;;;10.10;99.10;;;;;;5043729;28;21025;-75
2021/03/16 09:35:55;;;;;;;18.10;2.50;;;10.20;99.40;;;;;;5042705;28;20812;-75
2021/03/16 09:38:55;;;;;;;19.60;2.50;;;10.10;99.90;;;;;;5007242;28;20423;-76
2021/03/16 09:41:33;;;;;;;19.02;2.00;;;10.10;99.90;;;;;;5028722;28;21023;-76
2021/03/16 09:44:01;;;;;;;10.33;1.50;;;10.10;99.80;;;;;;5037465;28;21253;-76
2021/03/16 09:46:27;;;;;;;9.33;1.50;;;10.00;99.90;;;;;;5034896;28;21098;-78
2021/03/16 09:48:55;;;;;;;13.85;2.28;;;9.90;99.90;;;;;;5043168;28;20445;-76
2021/03/16 09:51:23;;;;;;;11.40;1.90;;;9.90;99.90;;;;;;5042984;28;20444;-75
2021/03/16 09:53:52;;;;;;;13.87;2.10;;;9.80;99.90;;;;;;5045280;28;20427;-75
2021/03/16 09:56:18;;;;;;;16.42;2.42;;;9.70;99.90;;;;;;5044942;28;20831;-75
2021/03/16 09:58:49;;;;;;;17.42;2.90;;;9.50;99.90;;;;;;5042857;28;20426;-76
2021/03/16 10:01:20;;;;;;;22.30;3.00;;;9.50;99.90;;;;;;5045234;28;20436;-76
2021/03/16 10:03:55;;;;;;;20.17;2.90;;;9.40;99.90;;;;;;5043121;28;20425;-75
2021/03/16 10:06:32;;;;;;;23.15;2.97;;;9.30;99.90;;;;;;5026964;28;20511;-76
2021/03/16 10:08:59;;;;;;;18.08;2.70;;;9.20;99.90;;;;;;5037394;28;20440;-79
2021/03/16 10:11:32;;;;;;;15.30;3.10;;;9.20;99.90;;;;;;5044462;28;20803;-76
2021/03/16 10:13:59;;;;;;;14.25;2.45;;;9.10;99.90;;;;;;5044553;28;20486;-76
2021/03/16 10:16:29;;;;;;;13.82;2.63;;;9.10;99.90;;;;;;5044856;28;20420;-76
2021/03/16 10:18:56;;;;;;;12.30;2.38;;;9.00;99.90;;;;;;5043518;28;21986;-76
2021/03/16 10:21:28;;;;;;;12.85;2.22;;;8.90;99.90;;;;;;5044815;28;20429;-75
2021/03/16 10:23:57;;;;;;;15.90;2.15;;;8.80;99.90;;;;;;5040523;28;20460;-76
2021/03/16 10:26:23;;;;;;;16.83;2.50;;;8.70;99.90;;;;;;5020940;28;20428;-77
2021/03/16 10:28:50;;;;;;;15.77;2.38;;;8.60;99.90;;;;;;5043849;28;20517;-76
2021/03/16 10:31:17;;;;;;;14.40;2.37;;;8.60;99.90;;;;;;5041695;28;21168;-76
2021/03/16 10:33:45;;;;;;;12.77;2.22;;;8.60;99.90;;;;;;5037928;28;20442;-75
2021/03/16 10:36:12;;;;;;;10.65;2.00;;;8.70;99.90;;;;;;5027261;28;20484;-76
2021/03/16 10:38:38;;;;;;;11.43;1.90;;;8.70;99.90;;;;;;5045423;28;20437;-76
2021/03/16 10:41:05;;;;;;;13.57;2.20;;;8.70;99.90;;;;;;5048582;28;20482;-76
2021/03/16 10:43:31;;;;;;;10.80;1.90;;;8.80;99.90;;;;;;5040136;28;20462;-76
2021/03/16 10:45:59;;;;;;;13.55;1.75;;;8.80;99.90;;;;;;5048098;28;20428;-76
2021/03/16 10:48:25;;;;;;;11.07;1.70;;;8.90;99.90;;;;;;5049045;28;20425;-77
2021/03/16 10:50:53;;;;;;;9.75;1.65;;;8.90;99.90;;;;;;5049502;28;20455;-75
2021/03/16 10:53:19;;;;;;;10.95;2.00;;;8.90;99.90;;;;;;5049231;28;20436;-76
2021/03/16 10:55:46;;;;;;;9.27;1.40;;;8.90;99.90;;;;;;5031282;28;21104;-77
2021/03/16 10:58:12;;;;;;;10.15;1.70;;;9.00;99.90;;;;;;5044987;28;20429;-74
2021/03/16 11:00:38;;;;;;;11.87;1.70;;;8.90;99.90;;;;;;5046029;28;20435;-77
2021/03/16 11:03:05;;;;;;;12.18;1.90;;;8.90;99.90;;;;;;5046835;28;20429;-76
2021/03/16 11:05:32;;;;;;;9.27;1.50;;;8.80;99.90;;;;;;5049578;28;20436;-75
2021/03/16 11:07:59;;;;;;;9.18;1.70;;;8.90;99.90;;;;;;5047718;28;22237;-76
2021/03/16 11:10:26;;;;;;;12.77;2.70;;;8.90;99.90;;;;;;5031367;28;20436;-76
2021/03/16 11:12:53;;;;;;;9.67;2.10;;;8.90;99.90;;;;;;5048779;28;20435;-76
2021/03/16 11:15:20;;;;;;;8.55;1.50;;;8.90;99.90;;;;;;5030756;28;20837;-76
2021/03/16 11:17:46;;;;;;;4.28;1.35;;;8.90;99.90;;;;;;5032670;28;20421;-76
2021/03/16 11:20:14;;;;;;;7.70;1.50;;;8.80;99.90;;;;;;5047704;28;20851;-76
2021/03/16 11:22:40;;;;;;;9.07;1.30;;;8.80;99.90;;;;;;5048437;28;20482;-78
2021/03/16 11:25:09;;;;;;;8.30;1.40;;;8.70;99.90;;;;;;5041642;28;20455;-76
2021/03/16 11:27:35;;;;;;;7.88;1.40;;;8.80;99.90;;;;;;5048541;28;20433;-75
2021/03/16 11:30:02;;;;;;;10.27;1.45;;;8.80;99.90;;;;;;5044523;28;20434;-75
2021/03/16 11:32:28;;;;;;;8.50;1.23;;;8.90;99.90;;;;;;5030886;28;20439;-76
2021/03/16 11:35:13;;;;;;;7.22;1.50;;;9.00;99.90;;;;;;5039897;28;20960;-75
2021/03/16 11:37:58;;;;;;;3.58;1.30;;;9.10;99.90;;;;;;5048146;28;20883;-76
2021/03/16 11:40:46;;;;;;;7.78;1.35;;;9.20;99.90;;;;;;5047951;28;20519;-75
2021/03/16 11:43:31;;;;;;;6.15;1.10;;;9.20;99.90;;;;;;5047061;28;20442;-75
2021/03/16 11:46:16;;;;;;;11.03;1.53;;;9.10;99.90;;;;;;5045397;28;20436;-77
2021/03/16 11:49:01;;;;;;;5.20;1.03;;;9.10;99.90;;;;;;5039364;28;20424;-75
2021/03/16 11:51:46;;;;;;;6.72;1.38;;;9.00;99.90;;;;;;5045370;28;20470;-75
2021/03/16 11:54:30;;;;;;;6.78;1.30;;;9.10;99.90;;;;;;5042002;28;20443;-75
2021/03/16 11:57:16;;;;;;;7.10;1.30;;;9.10;99.90;;;;;;5047087;28;20493;-76
2021/03/16 12:00:01;;;;;;;7.85;1.30;;;9.10;99.90;;;;;;5042777;28;20436;-75
2021/03/16 12:02:47;;;;;;;6.50;1.50;;;9.20;99.90;;;;;;5047850;28;20463;-75
2021/03/16 12:05:32;;;;;;;10.27;4.32;;;9.20;99.90;;;;;;5046345;28;20420;-74
2021/03/16 12:08:17;;;;;;;5.55;1.38;;;9.30;99.90;;;;;;5044790;28;20757;-75
2021/03/16 12:11:01;;;;;;;5.38;1.02;;;9.30;99.90;;;;;;5042386;28;20427;-75
2021/03/16 12:13:47;;;;;;;6.57;1.38;;;9.30;99.90;;;;;;5047336;28;20442;-76
2021/03/16 12:16:32;;;;;;;4.43;1.30;;;9.20;99.90;;;;;;5046383;28;20452;-75
2021/03/16 12:19:17;;;;;;;4.07;1.30;;;9.20;99.90;;;;;;5045446;28;20441;-75
2021/03/16 12:22:02;;;;;;;4.07;1.08;;;9.20;99.90;;;;;;5046552;28;20777;-75
2021/03/16 12:24:47;;;;;;;4.57;1.05;;;9.10;99.90;;;;;;5044779;28;20471;-74
2021/03/16 12:27:32;;;;;;;8.23;1.20;;;9.00;99.90;;;;;;5047486;28;20423;-75
2021/03/16 12:30:19;;;;;;;4.65;1.20;;;9.10;99.90;;;;;;5041235;28;21006;-75
2021/03/16 12:33:04;;;;;;;4.20;1.00;;;9.10;99.90;;;;;;5046767;28;20483;-75
2021/03/16 12:35:51;;;;;;;5.07;1.20;;;9.20;99.90;;;;;;5042477;28;20446;-77
2021/03/16 12:38:35;;;;;;;5.47;1.20;;;9.20;99.90;;;;;;5047944;28;20436;-75
2021/03/16 12:41:20;;;;;;;3.42;0.90;;;9.20;99.90;;;;;;5041745;28;20514;-75
2021/03/16 12:44:06;;;;;;;3.33;0.77;;;9.20;99.90;;;;;;5045388;28;20420;-74
2021/03/16 12:46:52;;;;;;;3.60;0.90;;;9.20;99.90;;;;;;5042962;28;20429;-75
2021/03/16 12:49:37;;;;;;;4.00;1.10;;;9.20;99.90;;;;;;5044499;28;20547;-75
2021/03/16 12:52:21;;;;;;;5.57;1.10;;;9.10;99.50;;;;;;5042543;28;20445;-75
2021/03/16 12:55:07;;;;;;;3.30;1.00;;;9.10;99.50;;;;;;5043721;28;20499;-75
2021/03/16 12:57:52;;;;;;;4.25;1.00;;;9.10;99.90;;;;;;5042700;28;20579;-76
2021/03/16 13:00:37;;;;;;;3.45;1.00;;;9.10;99.90;;;;;;5045356;28;20782;-76
2021/03/16 13:03:22;;;;;;;6.87;4.10;;;9.10;99.90;;;;;;5045125;28;20478;-75
2021/03/16 13:06:07;;;;;;;7.30;1.10;;;9.10;99.90;;;;;;5044000;28;20419;-76
2021/03/16 13:08:53;;;;;;;4.10;1.00;;;9.10;99.90;;;;;;5044565;28;20421;-76
2021/03/16 13:11:38;;;;;;;4.68;1.02;;;9.20;99.90;;;;;;5045190;28;20475;-75
2021/03/16 13:14:24;;;;;;;7.03;1.20;;;9.20;99.90;;;;;;5044240;28;20447;-76
2021/03/16 13:17:09;;;;;;;5.20;1.08;;;9.20;99.90;;;;;;5044395;28;20467;-76
2021/03/16 13:19:54;;;;;;;4.93;1.13;;;9.20;99.90;;;;;;5046686;28;21355;-77
2021/03/16 13:22:39;;;;;;;6.13;1.08;;;9.30;99.90;;;;;;5045090;28;20524;-76
2021/03/16 13:25:25;;;;;;;4.60;1.20;;;9.30;99.90;;;;;;5044870;28;20429;-78
2021/03/16 13:28:10;;;;;;;4.13;1.20;;;9.30;99.90;;;;;;5041140;28;20474;-76
2021/03/16 13:30:54;;;;;;;3.20;1.00;;;9.30;99.90;;;;;;5045885;28;20420;-76
2021/03/16 13:33:40;;;;;;;6.82;1.33;;;9.30;99.90;;;;;;5046566;28;20556;-76
2021/03/16 13:36:26;;;;;;;5.50;1.20;;;9.30;99.90;;;;;;5045391;28;20990;-76
2021/03/16 13:39:12;;;;;;;4.00;1.00;;;9.30;99.90;;;;;;5046403;28;20518;-76
2021/03/16 13:41:57;;;;;;;8.75;1.08;;;9.20;99.90;;;;;;5045662;28;20483;-76
2021/03/16 13:44:42;;;;;;;4.43;1.10;;;9.20;99.90;;;;;;5042774;28;20424;-78
2021/03/16 13:47:28;;;;;;;7.80;0.90;;;9.20;99.90;;;;;;5043532;28;20785;-77
2021/03/16 13:50:15;;;;;;;2.53;0.83;;;9.20;99.90;;;;;;5042707;28;20777;-76
2021/03/16 13:53:00;;;;;;;4.28;1.00;;;9.30;99.90;;;;;;5045754;28;20426;-76
2021/03/16 13:55:45;;;;;;;5.43;0.90;;;9.30;99.90;;;;;;5044122;28;20467;-76
2021/03/16 13:58:33;;;;;;;5.83;1.20;;;9.30;99.90;;;;;;5031733;28;20970;-76
2021/03/16 14:01:18;;;;;;;4.07;0.95;;;9.30;99.90;;;;;;5038465;28;20487;-74